KICT

Wichita Dwight D Eisenhower National Airport

Wichita, Kansas, USA
METAR KICT 231353Z 02006KT 10SM SCT007 OVC011 01/M01 A3027 RMK AO2 SLP262 T00061006 $
Observed Flight Rules
Feb-23 @ 13:53 UTC (45 minutes ago) Marginal Visual Flight Rules
Wind Visibility Clouds
20° at 6 knots 10 miles
  • Scattered at 700' AGL
  • Overcast at 1,100' AGL
Temperatures Readings
Current 1°C / 34°F
Dewpoint -1°C / 30°F
Humidity 87%
Altimeter 30.27" Hg
Pressure 1026.2 hPa
Elevation 407
METAR KICT 231353Z 02006KT 10SM SCT007 OVC011 01/M01 A3027 RMK AO2 SLP262 T00061006 $
Observed Flight Rules
Feb-23 @ 13:53 UTC
(45 minutes ago)
MVFR
Wind Visibility
20° at 6 knots 10 miles
Clouds
  • Scattered at 700' AGL
  • Overcast at 1,100' AGL
Temperature Dewpoint
1°C / 34°F -1°C / 30°F
Humidity Altimeter Pressure
87% 30.27" Hg 1026.2 hPa